Time;durP1;ratioP1;P1;durP2;ratioP2;P2;SDS_P1;SDS_P2;PMS_P1;PMS_P2;Temp;Humidity;BMP_temperature;BMP_pressure;BME280_temperature;BME280_humidity;BME280_pressure;Samples;Min_cycle;Max_cycle;Signal;HPM_P1;HPM_P2
2020/12/12 00:00:35;;;;;;;59.67;22.43;;;2.80;92.00;;;;;;5034641;28;20037;-65
2020/12/12 00:03:01;;;;;;;59.13;23.43;;;2.80;92.00;;;;;;5034269;28;20418;-65
2020/12/12 00:05:27;;;;;;;66.87;25.50;;;2.80;92.10;;;;;;5034282;28;20421;-65
2020/12/12 00:07:52;;;;;;;69.97;24.70;;;2.80;92.00;;;;;;5034802;28;20042;-64
2020/12/12 00:10:23;;;;;;;57.20;20.83;;;2.80;92.00;;;;;;5034890;28;20044;-65
2020/12/12 00:12:50;;;;;;;67.32;26.15;;;2.80;92.00;;;;;;5033754;28;20041;-65
2020/12/12 00:15:15;;;;;;;66.17;25.97;;;2.80;92.20;;;;;;5034620;28;20513;-64
2020/12/12 00:17:41;;;;;;;62.20;23.43;;;2.80;92.00;;;;;;5032822;28;20125;-64
2020/12/12 00:20:07;;;;;;;63.50;24.20;;;2.80;92.00;;;;;;5034477;28;20375;-65
2020/12/12 00:22:32;;;;;;;64.57;24.60;;;2.80;92.10;;;;;;5016350;28;20075;-65
2020/12/12 00:24:58;;;;;;;70.93;25.97;;;2.80;92.00;;;;;;5032705;28;20526;-65
2020/12/12 00:27:24;;;;;;;71.47;26.70;;;2.80;92.00;;;;;;5032912;28;20080;-65
2020/12/12 00:29:49;;;;;;;58.37;23.00;;;2.80;92.00;;;;;;5033994;28;20060;-65
2020/12/12 00:32:15;;;;;;;66.73;26.40;;;2.80;92.00;;;;;;5032506;28;20085;-64
2020/12/12 00:34:41;;;;;;;60.97;23.03;;;2.80;92.00;;;;;;5054234;28;20044;-65
2020/12/12 00:37:06;;;;;;;71.10;25.63;;;2.80;92.00;;;;;;5035348;28;20048;-65
2020/12/12 00:39:32;;;;;;;62.50;23.70;;;2.80;91.90;;;;;;5034032;28;20029;-65
2020/12/12 00:41:58;;;;;;;67.23;26.00;;;2.80;92.00;;;;;;5033335;28;20132;-69
2020/12/12 00:44:24;;;;;;;62.17;25.23;;;2.80;91.90;;;;;;5034195;28;20384;-65
2020/12/12 00:46:49;;;;;;;57.97;22.30;;;2.80;91.90;;;;;;5016242;28;20040;-65
2020/12/12 00:49:15;;;;;;;70.50;24.90;;;2.80;91.90;;;;;;5033584;28;20030;-65
2020/12/12 00:51:41;;;;;;;53.53;19.77;;;2.80;92.00;;;;;;5032076;28;20033;-65
2020/12/12 00:54:07;;;;;;;57.57;20.03;;;2.80;91.90;;;;;;5015960;28;20040;-66
2020/12/12 00:56:34;;;;;;;66.27;24.07;;;2.80;91.80;;;;;;5016233;28;20045;-65
2020/12/12 00:58:59;;;;;;;69.93;25.90;;;2.80;91.80;;;;;;5033880;28;20037;-65
2020/12/12 01:01:25;;;;;;;66.87;26.10;;;2.80;91.90;;;;;;5033370;28;20117;-65
2020/12/12 01:03:52;;;;;;;67.03;25.40;;;2.80;91.90;;;;;;5033158;28;20048;-65
2020/12/12 01:06:18;;;;;;;50.23;21.20;;;2.70;91.90;;;;;;5033388;28;20494;-65
2020/12/12 01:08:45;;;;;;;63.70;26.10;;;2.80;91.90;;;;;;5033604;28;20072;-65
2020/12/12 01:11:12;;;;;;;68.87;26.33;;;2.70;91.90;;;;;;5033742;28;20033;-64
2020/12/12 01:13:38;;;;;;;56.90;22.73;;;2.80;91.80;;;;;;5030915;28;20042;-65
2020/12/12 01:16:15;;;;;;;65.10;25.63;;;2.80;91.90;;;;;;5033417;28;20064;-65
2020/12/12 01:18:41;;;;;;;62.33;24.70;;;2.80;91.90;;;;;;5033026;28;20037;-65
2020/12/12 01:21:07;;;;;;;65.47;25.47;;;2.70;91.80;;;;;;5032259;28;20120;-65
2020/12/12 01:23:33;;;;;;;62.27;24.77;;;2.70;91.80;;;;;;5032958;28;20116;-65
2020/12/12 01:26:00;;;;;;;65.33;25.57;;;2.80;91.80;;;;;;5032946;28;20092;-65
2020/12/12 01:28:26;;;;;;;61.57;27.07;;;2.70;91.90;;;;;;5033248;28;20230;-65
2020/12/12 01:30:53;;;;;;;57.17;21.97;;;2.80;91.80;;;;;;5032738;28;20091;-65
2020/12/12 01:33:22;;;;;;;55.40;21.07;;;2.80;91.80;;;;;;5031315;28;20084;-64
2020/12/12 01:35:48;;;;;;;53.20;21.67;;;2.70;91.80;;;;;;5032626;28;20036;-65
2020/12/12 01:38:14;;;;;;;63.63;25.77;;;2.70;91.80;;;;;;5033687;28;20124;-75
2020/12/12 01:40:41;;;;;;;68.70;26.33;;;2.70;91.80;;;;;;5031723;28;20029;-75
2020/12/12 01:43:11;;;;;;;64.40;25.13;;;2.70;91.80;;;;;;5032173;28;20056;-76
2020/12/12 01:45:38;;;;;;;64.60;26.48;;;2.70;91.80;;;;;;5033011;28;20041;-75
2020/12/12 01:48:07;;;;;;;71.43;27.30;;;2.70;91.80;;;;;;5031285;28;20037;-76
2020/12/12 01:50:33;;;;;;;60.83;24.87;;;2.70;91.80;;;;;;5033072;28;20483;-75
2020/12/12 01:52:59;;;;;;;62.90;24.47;;;2.80;91.80;;;;;;5032387;28;20042;-76
2020/12/12 01:55:25;;;;;;;60.10;25.73;;;2.80;91.80;;;;;;5032325;28;20374;-75
2020/12/12 01:57:52;;;;;;;59.17;23.83;;;2.80;91.70;;;;;;5032664;28;20045;-75
2020/12/12 02:00:24;;;;;;;58.63;24.00;;;2.80;91.80;;;;;;5032322;28;20156;-75
2020/12/12 02:02:55;;;;;;;58.23;24.67;;;2.80;91.80;;;;;;5032026;28;20495;-76
2020/12/12 02:05:40;;;;;;;56.35;24.05;;;2.70;91.60;;;;;;5032121;28;20398;-76
2020/12/12 02:08:10;;;;;;;55.60;22.33;;;2.70;91.70;;;;;;5032490;28;20042;-75
2020/12/12 02:10:38;;;;;;;56.73;25.53;;;2.70;91.70;;;;;;5032501;28;20033;-75
2020/12/12 02:13:05;;;;;;;58.90;24.60;;;2.70;91.70;;;;;;5031791;28;20595;-75
2020/12/12 02:15:31;;;;;;;59.03;23.53;;;2.70;91.80;;;;;;5030534;28;20052;-75
2020/12/12 02:17:57;;;;;;;56.43;22.13;;;2.70;91.70;;;;;;5030923;28;20524;-75
2020/12/12 02:20:24;;;;;;;62.97;25.27;;;2.70;91.70;;;;;;5030418;28;20041;-75
2020/12/12 02:22:49;;;;;;;60.87;25.80;;;2.70;91.70;;;;;;5031260;28;20061;-75
2020/12/12 02:25:15;;;;;;;60.90;25.77;;;2.70;91.70;;;;;;5030953;28;20159;-75
2020/12/12 02:27:41;;;;;;;56.40;23.07;;;2.80;91.80;;;;;;5031720;28;20517;-76
2020/12/12 02:30:07;;;;;;;58.60;24.73;;;2.80;91.70;;;;;;5032075;28;20045;-75
2020/12/12 02:32:34;;;;;;;46.97;17.97;;;2.70;91.60;;;;;;5030212;28;20443;-75
2020/12/12 02:35:00;;;;;;;55.07;23.87;;;2.70;91.70;;;;;;5031646;28;20180;-75
2020/12/12 02:37:26;;;;;;;58.70;24.53;;;2.80;91.70;;;;;;5030539;28;20056;-75
2020/12/12 02:39:51;;;;;;;56.23;25.37;;;2.70;91.60;;;;;;5031504;28;20049;-75
2020/12/12 02:42:17;;;;;;;56.87;23.73;;;2.80;91.70;;;;;;5031457;28;20046;-76
2020/12/12 02:44:43;;;;;;;59.27;25.10;;;2.80;91.70;;;;;;5031955;28;20087;-75
2020/12/12 02:47:09;;;;;;;55.27;22.27;;;2.80;91.60;;;;;;5031496;28;20037;-75
2020/12/12 02:49:35;;;;;;;58.27;25.00;;;2.80;91.60;;;;;;5031784;28;20036;-75
2020/12/12 02:52:00;;;;;;;58.67;23.03;;;2.70;91.60;;;;;;5030851;28;20045;-75
2020/12/12 02:54:26;;;;;;;57.27;25.80;;;2.80;91.60;;;;;;5030439;28;20060;-75
2020/12/12 02:56:52;;;;;;;56.67;24.63;;;2.70;91.50;;;;;;5031517;28;20575;-75
2020/12/12 02:59:17;;;;;;;56.50;26.17;;;2.80;91.60;;;;;;5029914;28;20026;-75
2020/12/12 03:01:43;;;;;;;63.00;25.50;;;2.80;91.60;;;;;;5031001;28;20033;-75
2020/12/12 03:04:10;;;;;;;56.47;25.33;;;2.80;91.60;;;;;;5031164;28;20034;-74
2020/12/12 03:06:37;;;;;;;54.70;22.13;;;2.80;91.60;;;;;;5031260;28;20045;-75
2020/12/12 03:09:03;;;;;;;58.20;24.00;;;2.80;91.60;;;;;;5031537;28;20402;-75
2020/12/12 03:11:29;;;;;;;63.63;26.30;;;2.80;91.50;;;;;;5031182;28;20037;-75
2020/12/12 03:13:55;;;;;;;60.60;25.53;;;2.80;91.50;;;;;;5030744;28;20045;-75
2020/12/12 03:16:21;;;;;;;58.90;22.37;;;2.70;91.50;;;;;;5029353;28;20041;-75
2020/12/12 03:18:47;;;;;;;60.40;25.53;;;2.80;91.50;;;;;;5031206;28;20038;-75
2020/12/12 03:21:12;;;;;;;57.33;26.10;;;2.70;91.50;;;;;;5031237;28;20045;-75
2020/12/12 03:23:38;;;;;;;51.83;20.53;;;2.70;91.50;;;;;;5030215;28;20034;-75
2020/12/12 03:26:04;;;;;;;54.80;22.33;;;2.70;91.50;;;;;;5031137;28;20034;-75
2020/12/12 03:28:29;;;;;;;60.67;25.40;;;2.70;91.40;;;;;;5030807;28;20037;-76
2020/12/12 03:30:55;;;;;;;63.47;24.77;;;2.70;91.50;;;;;;5030256;28;20057;-75
2020/12/12 03:33:21;;;;;;;62.43;25.70;;;2.60;91.40;;;;;;5029127;28;20095;-75
2020/12/12 03:35:47;;;;;;;59.40;25.73;;;2.60;91.50;;;;;;5030461;28;20033;-75
2020/12/12 03:38:13;;;;;;;46.20;18.03;;;2.60;91.50;;;;;;5031128;28;20045;-75
2020/12/12 03:40:38;;;;;;;61.13;22.87;;;2.60;91.50;;;;;;5030946;28;20043;-75
2020/12/12 03:43:04;;;;;;;62.83;26.17;;;2.60;91.50;;;;;;5028975;28;20042;-75
2020/12/12 03:45:30;;;;;;;47.37;19.77;;;2.60;91.50;;;;;;5030838;28;20068;-76
2020/12/12 03:47:56;;;;;;;64.13;26.77;;;2.60;91.50;;;;;;5030459;28;20041;-75
2020/12/12 03:50:27;;;;;;;53.90;23.60;;;2.60;91.50;;;;;;5030874;28;20064;-75
2020/12/12 03:52:55;;;;;;;62.17;25.50;;;2.60;91.50;;;;;;5029850;28;20044;-73
2020/12/12 03:55:20;;;;;;;66.50;25.77;;;2.60;91.50;;;;;;5030835;28;20061;-75
2020/12/12 03:57:46;;;;;;;57.13;25.13;;;2.60;91.50;;;;;;5029475;28;20072;-76
2020/12/12 04:00:12;;;;;;;59.50;25.43;;;2.60;91.50;;;;;;5030361;28;20140;-75
2020/12/12 04:02:37;;;;;;;45.57;16.50;;;2.60;91.50;;;;;;5028903;28;20087;-75
2020/12/12 04:05:03;;;;;;;55.50;24.97;;;2.60;91.50;;;;;;5029014;28;20129;-75
2020/12/12 04:07:29;;;;;;;50.83;19.27;;;2.60;91.40;;;;;;5030810;28;20038;-76
2020/12/12 04:09:54;;;;;;;52.97;21.27;;;2.60;91.40;;;;;;5030781;28;20171;-76
2020/12/12 04:12:20;;;;;;;57.73;25.63;;;2.60;91.60;;;;;;5029867;28;20045;-75
2020/12/12 04:14:46;;;;;;;51.47;17.50;;;2.60;91.40;;;;;;5030572;28;20060;-75
2020/12/12 04:17:11;;;;;;;57.10;23.40;;;2.60;91.40;;;;;;5030101;28;20475;-75
2020/12/12 04:19:37;;;;;;;60.07;25.80;;;2.50;91.40;;;;;;5029202;28;20042;-75
2020/12/12 04:22:03;;;;;;;59.77;23.20;;;2.50;91.40;;;;;;5030202;28;20049;-75
2020/12/12 04:24:29;;;;;;;63.93;26.47;;;2.50;91.50;;;;;;5030230;28;20037;-75
2020/12/12 04:26:55;;;;;;;59.43;23.67;;;2.50;91.50;;;;;;5030454;28;20502;-75
2020/12/12 04:29:20;;;;;;;63.73;25.40;;;2.50;91.40;;;;;;5030095;28;20573;-74
2020/12/12 04:31:46;;;;;;;59.00;22.40;;;2.50;91.40;;;;;;5028845;28;20046;-75
2020/12/12 04:34:12;;;;;;;61.63;25.47;;;2.50;91.40;;;;;;5030384;28;20099;-76
2020/12/12 04:36:37;;;;;;;63.07;26.80;;;2.50;91.50;;;;;;5030036;28;20048;-75
2020/12/12 04:39:03;;;;;;;67.47;26.90;;;2.50;91.40;;;;;;5030423;28;20045;-75
2020/12/12 04:41:31;;;;;;;65.13;25.77;;;2.40;91.40;;;;;;5030438;28;20486;-75
2020/12/12 04:43:57;;;;;;;59.53;25.23;;;2.50;91.50;;;;;;5033695;28;20451;-75
2020/12/12 04:46:23;;;;;;;60.20;23.00;;;2.50;91.50;;;;;;5034092;28;20045;-75
2020/12/12 04:48:49;;;;;;;60.83;24.97;;;2.50;91.50;;;;;;5032344;28;20041;-75
2020/12/12 04:51:16;;;;;;;68.97;26.20;;;2.40;91.50;;;;;;5034018;28;20520;-75
2020/12/12 04:53:42;;;;;;;56.80;21.23;;;2.50;91.50;;;;;;5031862;28;20144;-73
2020/12/12 04:56:12;;;;;;;54.93;21.17;;;2.40;91.40;;;;;;5033856;28;20049;-75
2020/12/12 04:58:38;;;;;;;67.40;27.48;;;2.40;91.40;;;;;;5032797;28;20056;-75
2020/12/12 05:01:04;;;;;;;60.30;24.53;;;2.40;91.50;;;;;;5033471;28;20441;-75
2020/12/12 05:03:32;;;;;;;44.07;16.67;;;2.40;91.50;;;;;;5033251;28;20057;-75
2020/12/12 05:05:58;;;;;;;66.20;25.97;;;2.40;91.50;;;;;;5033299;28;20026;-75
2020/12/12 05:08:23;;;;;;;66.53;25.83;;;2.40;91.50;;;;;;5033782;28;20036;-75
2020/12/12 05:10:51;;;;;;;62.43;24.13;;;2.40;91.80;;;;;;5033651;28;20041;-74
2020/12/12 05:13:17;;;;;;;59.47;21.37;;;2.40;91.60;;;;;;5032742;28;20502;-75
2020/12/12 05:15:43;;;;;;;65.90;26.77;;;2.40;91.50;;;;;;5033407;28;20045;-75
2020/12/12 05:18:09;;;;;;;66.40;27.30;;;2.40;91.50;;;;;;5033028;28;20045;-76
2020/12/12 05:20:37;;;;;;;64.60;23.83;;;2.40;91.50;;;;;;5033605;28;20564;-75
2020/12/12 05:23:11;;;;;;;63.20;25.97;;;2.40;91.60;;;;;;5031713;28;20048;-75
2020/12/12 05:25:38;;;;;;;57.93;22.50;;;2.40;91.50;;;;;;5032997;28;20037;-75
2020/12/12 05:28:09;;;;;;;72.17;27.70;;;2.40;91.50;;;;;;5033370;28;20038;-75
2020/12/12 05:30:36;;;;;;;64.97;23.75;;;2.40;91.50;;;;;;5032936;28;20041;-75
2020/12/12 05:33:03;;;;;;;59.47;22.87;;;2.40;91.60;;;;;;5031380;28;20121;-75
2020/12/12 05:35:29;;;;;;;71.10;27.80;;;2.40;91.50;;;;;;5032700;28;20128;-75
2020/12/12 05:37:55;;;;;;;70.77;28.23;;;2.40;91.70;;;;;;5031841;28;20457;-76
2020/12/12 05:40:21;;;;;;;70.13;26.87;;;2.40;91.50;;;;;;5033192;28;20437;-75
2020/12/12 05:42:48;;;;;;;68.57;26.43;;;2.40;91.60;;;;;;5032176;28;20395;-75
2020/12/12 05:45:15;;;;;;;73.53;26.83;;;2.40;91.60;;;;;;5032987;28;20038;-75
2020/12/12 05:47:42;;;;;;;54.07;20.67;;;2.40;91.60;;;;;;5032474;28;20044;-75
2020/12/12 05:50:08;;;;;;;66.53;24.23;;;2.40;91.60;;;;;;5032954;28;20120;-77
2020/12/12 05:52:35;;;;;;;73.23;27.37;;;2.40;91.50;;;;;;5032508;28;20562;-75
2020/12/12 05:55:01;;;;;;;71.20;27.67;;;2.40;91.50;;;;;;5031500;28;20035;-75
2020/12/12 05:57:27;;;;;;;70.10;26.03;;;2.40;91.60;;;;;;5031261;28;20460;-76
2020/12/12 05:59:57;;;;;;;71.43;26.53;;;2.40;91.60;;;;;;5032105;28;20065;-75
2020/12/12 06:02:25;;;;;;;67.70;26.10;;;2.40;91.60;;;;;;5032338;28;20124;-75
2020/12/12 06:04:53;;;;;;;71.80;25.57;;;2.40;91.50;;;;;;5032243;28;20045;-75
2020/12/12 06:07:29;;;;;;;71.77;26.13;;;2.40;91.60;;;;;;5032714;28;20059;-75
2020/12/12 06:10:04;;;;;;;70.93;26.97;;;2.40;91.60;;;;;;5031987;28;20073;-75
2020/12/12 06:12:31;;;;;;;64.60;23.57;;;2.40;91.60;;;;;;5031898;28;20037;-75
2020/12/12 06:14:58;;;;;;;71.03;25.37;;;2.40;91.70;;;;;;5030482;28;20441;-75
2020/12/12 06:17:59;;;;;;;71.53;26.80;;;2.40;91.60;;;;;;5032273;28;20048;-75
2020/12/12 06:20:27;;;;;;;76.55;27.30;;;2.40;91.60;;;;;;5032089;28;20073;-75
2020/12/12 06:22:54;;;;;;;75.07;28.43;;;2.40;91.60;;;;;;5031839;28;20049;-75
2020/12/12 06:25:22;;;;;;;73.03;27.03;;;2.40;91.60;;;;;;5031677;28;20124;-75
2020/12/12 06:27:53;;;;;;;72.27;27.67;;;2.40;91.70;;;;;;5032142;28;20038;-75
2020/12/12 06:30:22;;;;;;;69.07;26.30;;;2.40;91.60;;;;;;5031872;28;20048;-75
2020/12/12 06:32:48;;;;;;;70.30;25.10;;;2.40;91.60;;;;;;5030169;28;20083;-76
2020/12/12 06:35:14;;;;;;;75.07;28.67;;;2.40;91.60;;;;;;5032021;28;20564;-76
2020/12/12 06:37:40;;;;;;;72.97;24.60;;;2.40;91.60;;;;;;5031610;28;20043;-75
2020/12/12 06:40:07;;;;;;;71.07;26.07;;;2.40;91.70;;;;;;5030550;28;20124;-75
2020/12/12 06:42:38;;;;;;;77.00;28.40;;;2.30;91.70;;;;;;5030947;28;20072;-76
2020/12/12 06:45:24;;;;;;;63.47;22.23;;;2.40;91.80;;;;;;5031960;28;20040;-75
2020/12/12 06:47:52;;;;;;;71.40;27.20;;;2.40;91.80;;;;;;5030165;28;20033;-75
2020/12/12 06:50:31;;;;;;;77.70;28.47;;;2.40;91.80;;;;;;5031766;28;20045;-75
2020/12/12 06:52:57;;;;;;;77.00;27.73;;;2.40;91.70;;;;;;5029684;28;20132;-75
2020/12/12 06:55:23;;;;;;;80.13;28.53;;;2.40;91.80;;;;;;5030222;28;20124;-76
2020/12/12 06:57:56;;;;;;;81.77;28.73;;;2.40;91.80;;;;;;5031127;28;20132;-75
2020/12/12 07:00:33;;;;;;;62.87;23.20;;;2.40;91.80;;;;;;5014581;28;20048;-75
2020/12/12 07:03:06;;;;;;;79.57;28.70;;;2.40;91.80;;;;;;5030689;28;20049;-75
2020/12/12 07:05:37;;;;;;;72.90;27.50;;;2.40;91.80;;;;;;5031390;28;20041;-75
2020/12/12 07:08:03;;;;;;;;;;;2.40;91.80;;;;;;5030393;28;20045;-75
2020/12/12 07:10:31;;;;;;;74.93;27.00;;;2.40;91.80;;;;;;5031261;28;19955;-75
2020/12/12 07:12:59;;;;;;;79.63;27.23;;;2.40;91.80;;;;;;5030335;28;20099;-74
2020/12/12 07:15:28;;;;;;;68.77;25.40;;;2.40;91.80;;;;;;5030142;28;20045;-75
2020/12/12 07:17:55;;;;;;;78.50;29.10;;;2.40;91.80;;;;;;5029944;28;20076;-75
2020/12/12 07:20:20;;;;;;;81.03;28.73;;;2.40;91.90;;;;;;5030839;28;20033;-75
2020/12/12 07:22:49;;;;;;;74.83;26.93;;;2.40;91.90;;;;;;5029370;28;20037;-75
2020/12/12 07:25:15;;;;;;;81.63;29.03;;;2.40;92.00;;;;;;5030665;28;20099;-75
2020/12/12 07:27:40;;;;;;;80.10;29.00;;;2.40;91.90;;;;;;5021636;28;20049;-75
2020/12/12 07:30:06;;;;;;;72.70;28.23;;;2.40;92.00;;;;;;5018636;28;20053;-75
2020/12/12 07:32:32;;;;;;;78.97;28.17;;;2.40;92.00;;;;;;5018946;28;20040;-75
2020/12/12 07:34:59;;;;;;;81.17;28.80;;;2.40;92.00;;;;;;5031125;28;20521;-75
2020/12/12 07:37:25;;;;;;;76.70;28.33;;;2.40;92.00;;;;;;5030988;28;20111;-65
2020/12/12 07:39:53;;;;;;;80.20;29.83;;;2.40;92.00;;;;;;5031018;28;20487;-65
2020/12/12 07:42:23;;;;;;;79.23;29.63;;;2.50;92.00;;;;;;5017721;28;20407;-65
2020/12/12 07:45:02;;;;;;;80.30;29.23;;;2.50;92.00;;;;;;5020632;28;20041;-66
2020/12/12 07:47:28;;;;;;;71.97;26.70;;;2.50;92.00;;;;;;5020767;28;20410;-66
2020/12/12 07:50:00;;;;;;;79.17;28.93;;;2.50;92.00;;;;;;5011757;28;20033;-66
2020/12/12 07:52:26;;;;;;;78.90;29.73;;;2.50;92.00;;;;;;5008522;28;20125;-66
2020/12/12 07:54:58;;;;;;;72.13;28.20;;;2.50;92.00;;;;;;5008900;28;20390;-65
2020/12/12 07:57:24;;;;;;;75.50;28.10;;;2.50;91.90;;;;;;5021502;28;20135;-65
2020/12/12 07:59:50;;;;;;;76.27;29.17;;;2.50;91.90;;;;;;5021617;28;20111;-65
2020/12/12 08:02:15;;;;;;;78.77;29.03;;;2.50;91.90;;;;;;5030206;28;20037;-65
2020/12/12 08:04:41;;;;;;;81.13;29.73;;;2.50;92.00;;;;;;5030333;28;20045;-66
2020/12/12 08:07:21;;;;;;;87.60;31.00;;;2.50;92.00;;;;;;5026974;28;20087;-65
2020/12/12 08:09:48;;;;;;;71.30;24.63;;;2.60;92.00;;;;;;5006979;28;20053;-65
2020/12/12 08:12:28;;;;;;;86.60;31.40;;;2.50;92.00;;;;;;5021047;28;20706;-65
2020/12/12 08:14:54;;;;;;;84.30;31.13;;;2.60;92.00;;;;;;5015505;28;20053;-65
2020/12/12 08:17:20;;;;;;;89.20;31.10;;;2.60;91.90;;;;;;5031973;28;20119;-65
2020/12/12 08:19:48;;;;;;;91.23;31.90;;;2.50;92.00;;;;;;5033571;28;20065;-65
2020/12/12 08:22:20;;;;;;;91.50;33.00;;;2.50;92.10;;;;;;5033557;28;20030;-65
2020/12/12 08:24:48;;;;;;;88.93;31.37;;;2.60;92.10;;;;;;5016739;28;20281;-65
2020/12/12 08:27:16;;;;;;;91.27;31.57;;;2.50;92.20;;;;;;5033928;28;20033;-65
2020/12/12 08:29:53;;;;;;;83.70;30.87;;;2.60;92.20;;;;;;5014723;28;20030;-65
2020/12/12 08:32:38;;;;;;;81.37;29.20;;;2.60;92.20;;;;;;5013684;28;22911;-65
2020/12/12 08:35:11;;;;;;;86.63;30.10;;;2.60;92.20;;;;;;5013291;28;20571;-65
2020/12/12 08:37:37;;;;;;;86.43;31.27;;;2.60;92.20;;;;;;5014131;28;20046;-65
2020/12/12 08:40:10;;;;;;;78.23;30.67;;;2.60;92.20;;;;;;5014590;28;20038;-65
2020/12/12 08:42:36;;;;;;;86.80;31.77;;;2.60;92.30;;;;;;5013505;28;20040;-65
2020/12/12 08:45:16;;;;;;;80.83;31.03;;;2.60;92.20;;;;;;5014331;28;20067;-65
2020/12/12 08:47:42;;;;;;;82.37;32.20;;;2.70;92.40;;;;;;5013788;28;20491;-65
2020/12/12 08:50:08;;;;;;;83.70;31.43;;;2.60;92.40;;;;;;5013371;28;20049;-65
2020/12/12 08:52:34;;;;;;;80.87;30.50;;;2.70;92.30;;;;;;5017531;28;20454;-65
2020/12/12 08:55:01;;;;;;;79.87;31.03;;;2.70;92.40;;;;;;5008753;28;20038;-65
2020/12/12 08:57:30;;;;;;;71.30;27.27;;;2.70;92.50;;;;;;5003511;28;20064;-65
2020/12/12 09:00:00;;;;;;;77.80;29.70;;;2.80;92.40;;;;;;5009734;28;20396;-64
2020/12/12 09:02:26;;;;;;;78.73;30.40;;;2.80;92.30;;;;;;5020682;28;20491;-65
2020/12/12 09:05:08;;;;;;;69.70;27.63;;;2.80;92.30;;;;;;5032045;28;20029;-65
2020/12/12 09:07:34;;;;;;;78.93;30.30;;;2.80;92.30;;;;;;5033542;28;20383;-64
2020/12/12 09:10:08;;;;;;;77.03;29.43;;;2.90;92.30;;;;;;5031614;28;20030;-65
2020/12/12 09:12:46;;;;;;;76.63;30.70;;;2.80;92.30;;;;;;5031797;28;20517;-65
2020/12/12 09:15:13;;;;;;;76.63;29.90;;;2.80;92.20;;;;;;5031782;28;20045;-65
2020/12/12 09:17:39;;;;;;;73.60;29.10;;;2.90;92.30;;;;;;5032156;28;20440;-64
2020/12/12 09:20:07;;;;;;;78.00;29.70;;;2.90;92.30;;;;;;5000319;28;20132;-65
2020/12/12 09:22:33;;;;;;;72.80;29.17;;;2.90;92.30;;;;;;5021508;28;20034;-64
2020/12/12 09:25:00;;;;;;;77.70;30.27;;;2.90;92.30;;;;;;5023384;28;20040;-65
2020/12/12 09:27:25;;;;;;;69.80;29.03;;;2.90;92.30;;;;;;5031945;28;20589;-65
2020/12/12 09:29:51;;;;;;;70.93;27.80;;;2.90;92.30;;;;;;5014410;28;20038;-65
2020/12/12 09:32:17;;;;;;;78.43;31.03;;;3.00;92.30;;;;;;5012161;28;20037;-65
2020/12/12 09:34:42;;;;;;;74.80;28.87;;;3.00;92.30;;;;;;4995917;28;20053;-65
2020/12/12 09:37:08;;;;;;;74.40;28.37;;;3.00;92.20;;;;;;5013195;28;20034;-65
2020/12/12 09:39:34;;;;;;;75.83;29.27;;;3.00;92.20;;;;;;5012881;28;20109;-64
2020/12/12 09:42:00;;;;;;;78.93;31.50;;;3.00;92.10;;;;;;5011713;28;20068;-64
2020/12/12 09:44:27;;;;;;;70.47;28.23;;;3.00;92.20;;;;;;5012728;28;20473;-64
2020/12/12 09:46:53;;;;;;;75.80;30.50;;;3.00;92.20;;;;;;5013290;28;20056;-65
2020/12/12 09:49:19;;;;;;;72.13;29.00;;;3.00;92.20;;;;;;5014101;28;20528;-65
2020/12/12 09:51:48;;;;;;;65.17;27.93;;;3.00;92.30;;;;;;5022423;28;20071;-64
2020/12/12 09:54:14;;;;;;;69.23;29.47;;;3.00;92.40;;;;;;5032941;28;20064;-64
2020/12/12 09:56:40;;;;;;;72.53;29.77;;;3.00;92.10;;;;;;5030977;28;20040;-64
2020/12/12 09:59:06;;;;;;;70.00;30.00;;;3.00;92.20;;;;;;5031448;28;20120;-65
2020/12/12 10:01:32;;;;;;;75.70;29.23;;;3.10;92.20;;;;;;5032207;28;20029;-65
2020/12/12 10:03:58;;;;;;;72.60;30.17;;;3.10;92.10;;;;;;5032380;28;20057;-64
2020/12/12 10:06:23;;;;;;;71.20;25.63;;;3.10;92.10;;;;;;5031209;28;20402;-64
2020/12/12 10:08:49;;;;;;;68.77;27.30;;;3.10;92.10;;;;;;5032276;28;20128;-65
2020/12/12 10:11:15;;;;;;;57.07;20.80;;;3.10;92.10;;;;;;5031468;28;20036;-64
2020/12/12 10:13:41;;;;;;;77.07;31.30;;;3.10;92.10;;;;;;5011772;28;20506;-65
2020/12/12 10:16:07;;;;;;;72.50;28.47;;;3.10;92.10;;;;;;5020298;28;20034;-64
2020/12/12 10:18:32;;;;;;;68.97;29.20;;;3.10;92.30;;;;;;5022435;28;20042;-65
2020/12/12 10:20:58;;;;;;;65.47;25.87;;;3.10;92.10;;;;;;5031833;28;20041;-64
2020/12/12 10:23:24;;;;;;;68.83;27.73;;;3.10;92.10;;;;;;5031737;28;20042;-65
2020/12/12 10:25:50;;;;;;;68.57;28.27;;;3.20;92.00;;;;;;5030423;28;20036;-65
2020/12/12 10:28:17;;;;;;;70.43;28.63;;;3.20;92.10;;;;;;5028544;28;20069;-65
2020/12/12 10:30:43;;;;;;;70.67;28.80;;;3.20;92.10;;;;;;5017057;28;20116;-65
2020/12/12 10:33:08;;;;;;;66.73;27.73;;;3.20;92.20;;;;;;5021971;28;20593;-65
2020/12/12 10:35:35;;;;;;;66.80;28.70;;;3.30;92.00;;;;;;5023635;28;20033;-64
2020/12/12 10:38:01;;;;;;;58.63;22.23;;;3.30;92.00;;;;;;5031975;28;20045;-64
2020/12/12 10:40:32;;;;;;;69.50;28.80;;;3.30;91.90;;;;;;5029915;28;20033;-64
2020/12/12 10:42:58;;;;;;;65.70;26.53;;;3.40;91.90;;;;;;5031348;28;20567;-64
2020/12/12 10:45:24;;;;;;;65.33;28.00;;;3.40;91.90;;;;;;5030038;28;20081;-65
2020/12/12 10:47:49;;;;;;;64.77;27.30;;;3.40;92.00;;;;;;5013078;28;20096;-65
2020/12/12 10:50:15;;;;;;;62.53;26.17;;;3.40;91.90;;;;;;5041909;28;20042;-65
2020/12/12 10:52:41;;;;;;;61.90;26.50;;;3.50;91.80;;;;;;5019125;28;20045;-64
2020/12/12 10:55:07;;;;;;;61.37;28.00;;;3.50;91.70;;;;;;5020197;28;20056;-65
2020/12/12 10:57:33;;;;;;;61.60;27.60;;;3.50;91.70;;;;;;5010135;28;20399;-65
2020/12/12 11:00:02;;;;;;;66.57;27.30;;;3.50;91.70;;;;;;5012010;28;20184;-65
2020/12/12 11:02:29;;;;;;;62.87;26.67;;;3.50;91.60;;;;;;5009454;28;20502;-65
2020/12/12 11:04:55;;;;;;;63.27;25.23;;;3.60;91.70;;;;;;5011912;28;20038;-65
2020/12/12 11:07:21;;;;;;;59.10;25.47;;;3.60;91.80;;;;;;5011751;28;20040;-64
2020/12/12 11:09:47;;;;;;;60.77;27.50;;;3.60;91.50;;;;;;5011336;28;20087;-65
2020/12/12 11:12:13;;;;;;;61.13;26.57;;;3.60;91.50;;;;;;5009755;28;20033;-65
2020/12/12 11:14:40;;;;;;;62.57;29.20;;;3.60;91.50;;;;;;5010895;28;20029;-65
2020/12/12 11:17:06;;;;;;;59.03;26.40;;;3.70;91.60;;;;;;5010333;28;20064;-65
2020/12/12 11:19:32;;;;;;;63.40;27.80;;;3.70;91.70;;;;;;5016718;28;20045;-65
2020/12/12 11:21:59;;;;;;;58.53;26.27;;;3.80;91.60;;;;;;5023807;28;20049;-64
2020/12/12 11:24:25;;;;;;;58.17;25.80;;;3.90;91.50;;;;;;5013840;28;20037;-64
2020/12/12 11:26:51;;;;;;;56.90;25.77;;;3.90;91.40;;;;;;5011031;28;20399;-65
2020/12/12 11:29:18;;;;;;;48.20;20.50;;;3.90;91.20;;;;;;5011371;28;20487;-65
2020/12/12 11:31:48;;;;;;;54.33;25.67;;;3.90;91.20;;;;;;5010835;28;20113;-65
2020/12/12 11:42:28;;;;;;;56.00;25.67;;;3.90;91.20;;;;;;5010608;28;20042;-65
2020/12/12 11:47:26;;;;;;;55.03;25.30;;;4.10;91.20;;;;;;4997583;28;20403;-65
2020/12/12 11:49:53;;;;;;;57.13;25.80;;;4.00;90.90;;;;;;5026636;28;20030;-64
2020/12/12 11:52:19;;;;;;;55.27;24.37;;;4.00;90.80;;;;;;5024211;28;20465;-65
2020/12/12 11:54:45;;;;;;;58.77;24.40;;;4.00;90.70;;;;;;5019799;28;20125;-65
2020/12/12 11:57:11;;;;;;;58.90;27.00;;;4.00;90.80;;;;;;5017363;28;20467;-65
2020/12/12 11:59:37;;;;;;;59.13;25.73;;;4.00;90.80;;;;;;5019647;28;20045;-65
2020/12/12 12:02:04;;;;;;;55.07;25.27;;;4.00;90.90;;;;;;5021856;28;20444;-65
2020/12/12 12:04:30;;;;;;;57.87;26.63;;;4.10;90.90;;;;;;5028263;28;20034;-65
2020/12/12 12:06:57;;;;;;;53.10;25.53;;;4.10;90.70;;;;;;5018923;28;20046;-65
2020/12/12 12:09:31;;;;;;;56.80;26.50;;;4.00;90.60;;;;;;5025124;28;20064;-65
2020/12/12 12:11:57;;;;;;;55.73;25.63;;;4.10;90.60;;;;;;5012984;28;20041;-65
2020/12/12 12:14:22;;;;;;;57.20;25.03;;;4.10;91.00;;;;;;5023548;28;20581;-64
2020/12/12 12:16:48;;;;;;;59.77;26.27;;;4.10;90.60;;;;;;5020268;28;20049;-65
2020/12/12 12:19:16;;;;;;;54.60;25.47;;;4.10;90.50;;;;;;5016314;28;20034;-65
2020/12/12 12:21:46;;;;;;;54.03;23.70;;;4.00;90.50;;;;;;5026061;28;20460;-65
2020/12/12 12:24:15;;;;;;;54.93;24.23;;;4.00;90.60;;;;;;5009904;28;20030;-65
2020/12/12 12:26:41;;;;;;;52.83;24.63;;;4.00;90.50;;;;;;5010415;28;20038;-65
2020/12/12 12:29:09;;;;;;;54.73;24.47;;;4.00;90.50;;;;;;5008963;28;20033;-65
2020/12/12 12:31:35;;;;;;;55.27;24.93;;;4.00;90.50;;;;;;5009535;28;20030;-65
2020/12/12 12:34:01;;;;;;;48.77;22.83;;;4.00;90.40;;;;;;5015850;28;20445;-65
2020/12/12 12:36:28;;;;;;;49.80;23.00;;;4.00;90.60;;;;;;5000307;28;20044;-65
2020/12/12 12:38:56;;;;;;;51.73;22.87;;;4.00;90.40;;;;;;5002060;28;20033;-65
2020/12/12 12:41:24;;;;;;;56.20;25.20;;;4.00;90.50;;;;;;5002682;28;20495;-65
2020/12/12 12:43:51;;;;;;;49.33;21.43;;;4.00;90.60;;;;;;5018362;28;20038;-65
2020/12/12 12:46:21;;;;;;;53.13;24.47;;;4.10;90.70;;;;;;5018667;28;20549;-65
2020/12/12 12:48:48;;;;;;;50.88;23.52;;;4.00;90.50;;;;;;5019503;28;20035;-65